sensor_id;sensor_type;location;lat;lon;timestamp;pressure;altitude;pressure_sealevel;temperature;humidity
61039;BME280;46919;45.816;3.104;2022-08-19T00:02:02;97812.00;;;16.67;100.00
61039;BME280;46919;45.816;3.104;2022-08-19T00:04:34;97813.63;;;16.68;100.00
61039;BME280;46919;45.816;3.104;2022-08-19T00:07:03;97816.88;;;16.65;100.00
61039;BME280;46919;45.816;3.104;2022-08-19T00:09:29;97810.34;;;16.66;100.00
61039;BME280;46919;45.816;3.104;2022-08-19T00:11:57;97811.47;;;16.70;100.00
61039;BME280;46919;45.816;3.104;2022-08-19T00:14:24;97807.13;;;16.79;100.00
61039;BME280;46919;45.816;3.104;2022-08-19T00:16:50;97812.84;;;16.78;100.00
61039;BME280;46919;45.816;3.104;2022-08-19T00:19:19;97805.50;;;16.78;100.00
61039;BME280;46919;45.816;3.104;2022-08-19T00:21:45;97816.16;;;16.80;100.00
61039;BME280;46919;45.816;3.104;2022-08-19T00:24:12;97806.31;;;16.79;100.00
61039;BME280;46919;45.816;3.104;2022-08-19T00:26:39;97806.31;;;16.79;100.00
61039;BME280;46919;45.816;3.104;2022-08-19T00:29:10;97808.78;;;16.80;100.00
61039;BME280;46919;45.816;3.104;2022-08-19T00:31:36;97816.22;;;16.95;100.00
61039;BME280;46919;45.816;3.104;2022-08-19T00:34:02;97815.94;;;16.92;100.00
61039;BME280;46919;45.816;3.104;2022-08-19T00:36:28;97811.00;;;16.89;100.00
61039;BME280;46919;45.816;3.104;2022-08-19T00:38:54;97802.81;;;16.89;100.00
61039;BME280;46919;45.816;3.104;2022-08-19T00:41:21;97806.94;;;16.91;100.00
61039;BME280;46919;45.816;3.104;2022-08-19T00:46:31;97822.53;;;16.96;100.00
61039;BME280;46919;45.816;3.104;2022-08-19T00:48:59;97822.53;;;16.96;100.00
61039;BME280;46919;45.816;3.104;2022-08-19T00:51:29;97817.59;;;16.93;100.00
61039;BME280;46919;45.816;3.104;2022-08-19T00:53:57;97820.06;;;16.94;100.00
61039;BME280;46919;45.816;3.104;2022-08-19T00:56:24;97824.41;;;16.90;100.00
61039;BME280;46919;45.816;3.104;2022-08-19T00:58:51;97817.84;;;16.91;100.00
61039;BME280;46919;45.816;3.104;2022-08-19T01:01:17;97815.13;;;16.96;100.00
61039;BME280;46919;45.816;3.104;2022-08-19T01:03:42;97819.00;;;17.16;99.97
61039;BME280;46919;45.816;3.104;2022-08-19T01:06:08;97823.97;;;17.24;97.41
61039;BME280;46919;45.816;3.104;2022-08-19T01:08:33;97818.75;;;17.17;98.43
61039;BME280;46919;45.816;3.104;2022-08-19T01:10:59;97806.47;;;17.20;98.58
61039;BME280;46919;45.816;3.104;2022-08-19T01:13:29;97813.84;;;17.19;98.79
61039;BME280;46919;45.816;3.104;2022-08-19T01:15:58;97816.00;;;17.17;98.11
61039;BME280;46919;45.816;3.104;2022-08-19T01:18:25;97821.19;;;17.14;99.33
61039;BME280;46919;45.816;3.104;2022-08-19T01:20:54;97823.66;;;17.05;99.65
61039;BME280;46919;45.816;3.104;2022-08-19T01:23:21;97813.81;;;17.09;98.97
61039;BME280;46919;45.816;3.104;2022-08-19T01:25:50;97805.06;;;17.12;98.23
61039;BME280;46919;45.816;3.104;2022-08-19T01:30:43;97808.97;;;17.37;92.38
61039;BME280;46919;45.816;3.104;2022-08-19T01:33:09;97799.13;;;17.56;89.77
61039;BME280;46919;45.816;3.104;2022-08-19T01:35:35;97801.59;;;17.58;90.13
61039;BME280;46919;45.816;3.104;2022-08-19T01:38:04;97794.47;;;17.57;90.42
61039;BME280;46919;45.816;3.104;2022-08-19T01:40:34;97793.13;;;17.44;84.81
61039;BME280;46919;45.816;3.104;2022-08-19T01:43:02;97809.00;;;17.58;89.03
61039;BME280;46919;45.816;3.104;2022-08-19T01:45:29;97808.44;;;17.61;88.73
61039;BME280;46919;45.816;3.104;2022-08-19T01:47:55;97810.09;;;17.72;85.87
61039;BME280;46919;45.816;3.104;2022-08-19T01:50:21;97804.63;;;17.72;85.31
61039;BME280;46919;45.816;3.104;2022-08-19T01:52:47;97808.44;;;17.71;86.01
61039;BME280;46919;45.816;3.104;2022-08-19T01:55:15;97812.53;;;17.68;86.00
61039;BME280;46919;45.816;3.104;2022-08-19T01:57:45;97813.91;;;17.61;86.89
61039;BME280;46919;45.816;3.104;2022-08-19T02:00:15;97816.06;;;17.59;87.36
61039;BME280;46919;45.816;3.104;2022-08-19T02:02:41;97816.06;;;17.59;87.10
61039;BME280;46919;45.816;3.104;2022-08-19T02:05:07;97828.66;;;17.60;86.26
61039;BME280;46919;45.816;3.104;2022-08-19T02:07:34;97820.72;;;17.63;86.53
61039;BME280;46919;45.816;3.104;2022-08-19T02:10:12;97829.19;;;17.56;87.75
61039;BME280;46919;45.816;3.104;2022-08-19T02:12:38;97826.19;;;17.63;86.46
61039;BME280;46919;45.816;3.104;2022-08-19T02:15:04;97823.47;;;17.63;86.22
61039;BME280;46919;45.816;3.104;2022-08-19T02:17:29;97830.00;;;17.57;87.76
61039;BME280;46919;45.816;3.104;2022-08-19T02:19:55;97834.38;;;17.53;87.95
61039;BME280;46919;45.816;3.104;2022-08-19T02:22:22;97828.91;;;17.63;86.56
61039;BME280;46919;45.816;3.104;2022-08-19T02:24:47;97836.03;;;17.59;87.27
61039;BME280;46919;45.816;3.104;2022-08-19T02:27:13;97826.75;;;17.75;84.34
61039;BME280;46919;45.816;3.104;2022-08-19T02:29:40;97834.13;;;17.80;85.57
61039;BME280;46919;45.816;3.104;2022-08-19T02:32:07;97835.75;;;17.71;86.30
61039;BME280;46919;45.816;3.104;2022-08-19T02:34:33;97837.97;;;17.69;85.77
61039;BME280;46919;45.816;3.104;2022-08-19T02:36:59;97835.50;;;17.62;86.05
61039;BME280;46919;45.816;3.104;2022-08-19T02:39:24;97838.47;;;17.55;86.62
61039;BME280;46919;45.816;3.104;2022-08-19T02:41:51;97845.03;;;17.49;87.09
61039;BME280;46919;45.816;3.104;2022-08-19T02:44:17;97842.03;;;17.46;87.25
61039;BME280;46919;45.816;3.104;2022-08-19T02:46:45;97849.94;;;17.42;87.50
61039;BME280;46919;45.816;3.104;2022-08-19T02:49:11;97846.13;;;17.43;87.02
61039;BME280;46919;45.816;3.104;2022-08-19T02:51:39;97852.69;;;17.47;86.34
61039;BME280;46919;45.816;3.104;2022-08-19T02:54:06;97850.47;;;17.44;86.97
61039;BME280;46919;45.816;3.104;2022-08-19T02:56:34;97837.41;;;17.46;86.64
61039;BME280;46919;45.816;3.104;2022-08-19T02:59:00;97840.66;;;17.53;86.26
61039;BME280;46919;45.816;3.104;2022-08-19T03:01:28;97850.78;;;17.48;86.85
61039;BME280;46919;45.816;3.104;2022-08-19T03:03:54;97843.66;;;17.42;87.41
61039;BME280;46919;45.816;3.104;2022-08-19T03:06:21;97838.22;;;17.42;87.80
61039;BME280;46919;45.816;3.104;2022-08-19T03:08:48;97830.28;;;17.40;88.14
61039;BME280;46919;45.816;3.104;2022-08-19T03:11:27;97837.38;;;17.41;88.52
61039;BME280;46919;45.816;3.104;2022-08-19T03:13:53;97851.81;;;17.36;89.33
61039;BME280;46919;45.816;3.104;2022-08-19T03:16:21;97853.47;;;17.37;89.21
61039;BME280;46919;45.816;3.104;2022-08-19T03:18:48;97857.03;;;17.33;89.86
61039;BME280;46919;45.816;3.104;2022-08-19T03:21:19;97861.13;;;17.35;89.38
61039;BME280;46919;45.816;3.104;2022-08-19T03:23:46;97855.38;;;17.32;90.63
61039;BME280;46919;45.816;3.104;2022-08-19T03:26:11;97872.31;;;17.29;91.03
61039;BME280;46919;45.816;3.104;2022-08-19T03:28:37;97866.06;;;17.38;90.18
61039;BME280;46919;45.816;3.104;2022-08-19T03:31:07;97872.88;;;17.36;90.52
61039;BME280;46919;45.816;3.104;2022-08-19T03:33:33;97870.69;;;17.38;90.72
61039;BME280;46919;45.816;3.104;2022-08-19T03:36:12;97869.03;;;17.32;91.71
61039;BME280;46919;45.816;3.104;2022-08-19T03:38:40;97873.66;;;17.26;92.42
61039;BME280;46919;45.816;3.104;2022-08-19T03:41:08;97885.13;;;17.23;93.25
61039;BME280;46919;45.816;3.104;2022-08-19T03:43:36;97893.84;;;17.20;94.14
61039;BME280;46919;45.816;3.104;2022-08-19T03:46:08;97890.59;;;17.18;94.06
61039;BME280;46919;45.816;3.104;2022-08-19T03:48:35;97893.59;;;17.16;94.57
61039;BME280;46919;45.816;3.104;2022-08-19T03:51:02;97897.38;;;17.10;95.92
61039;BME280;46919;45.816;3.104;2022-08-19T03:53:29;97898.19;;;17.06;96.32
61039;BME280;46919;45.816;3.104;2022-08-19T03:55:55;97903.91;;;17.04;96.36
61039;BME280;46919;45.816;3.104;2022-08-19T03:58:22;97904.72;;;17.05;96.44
61039;BME280;46919;45.816;3.104;2022-08-19T04:00:47;97917.84;;;17.08;95.87
61039;BME280;46919;45.816;3.104;2022-08-19T04:03:14;97899.25;;;17.05;95.55
61039;BME280;46919;45.816;3.104;2022-08-19T04:05:39;97902.50;;;17.01;97.26
61039;BME280;46919;45.816;3.104;2022-08-19T04:08:05;97911.22;;;16.93;98.36
61039;BME280;46919;45.816;3.104;2022-08-19T04:10:35;97906.56;;;16.94;98.65
61039;BME280;46919;45.816;3.104;2022-08-19T04:13:00;97907.69;;;16.93;98.60
61039;BME280;46919;45.816;3.104;2022-08-19T04:15:26;97919.13;;;16.90;98.97
61039;BME280;46919;45.816;3.104;2022-08-19T04:17:52;97916.69;;;16.98;98.34
61039;BME280;46919;45.816;3.104;2022-08-19T04:20:18;97923.53;;;17.01;98.04
61039;BME280;46919;45.816;3.104;2022-08-19T04:22:43;97925.47;;;17.00;98.02
61039;BME280;46919;45.816;3.104;2022-08-19T04:25:09;97928.72;;;16.97;98.31
61039;BME280;46919;45.816;3.104;2022-08-19T04:27:35;97929.81;;;16.96;97.89
61039;BME280;46919;45.816;3.104;2022-08-19T04:30:00;97947.56;;;16.99;97.84
61039;BME280;46919;45.816;3.104;2022-08-19T04:32:25;97939.13;;;17.00;97.35
61039;BME280;46919;45.816;3.104;2022-08-19T04:34:51;97939.38;;;16.99;97.41
61039;BME280;46919;45.816;3.104;2022-08-19T04:37:16;97941.25;;;16.98;97.90
61039;BME280;46919;45.816;3.104;2022-08-19T04:39:42;97932.81;;;17.00;98.18
61039;BME280;46919;45.816;3.104;2022-08-19T04:42:25;97951.91;;;17.00;98.63
61039;BME280;46919;45.816;3.104;2022-08-19T04:45:09;97943.19;;;17.03;97.81
61039;BME280;46919;45.816;3.104;2022-08-19T04:47:36;97943.53;;;17.12;96.85
61039;BME280;46919;45.816;3.104;2022-08-19T04:50:02;97936.97;;;17.13;96.73
61039;BME280;46919;45.816;3.104;2022-08-19T04:52:28;97949.81;;;17.12;96.78
61039;BME280;46919;45.816;3.104;2022-08-19T04:54:53;97945.97;;;17.08;97.42
61039;BME280;46919;45.816;3.104;2022-08-19T04:57:20;97944.06;;;17.09;97.60
61039;BME280;46919;45.816;3.104;2022-08-19T04:59:46;97953.34;;;17.08;97.51
61039;BME280;46919;45.816;3.104;2022-08-19T05:02:11;97955.25;;;17.07;98.05
61039;BME280;46919;45.816;3.104;2022-08-19T05:04:37;97953.06;;;17.04;98.36
61039;BME280;46919;45.816;3.104;2022-08-19T05:07:05;97962.28;;;16.98;99.07
61039;BME280;46919;45.816;3.104;2022-08-19T05:09:30;97968.28;;;16.95;99.82
61039;BME280;46919;45.816;3.104;2022-08-19T05:11:56;97972.66;;;16.91;100.00
61039;BME280;46919;45.816;3.104;2022-08-19T05:14:21;97974.28;;;16.92;100.00
61039;BME280;46919;45.816;3.104;2022-08-19T05:16:47;97971.81;;;16.95;100.00
61039;BME280;46919;45.816;3.104;2022-08-19T05:19:13;97970.75;;;16.96;100.00
61039;BME280;46919;45.816;3.104;2022-08-19T05:21:57;97971.56;;;16.97;100.00
61039;BME280;46919;45.816;3.104;2022-08-19T05:24:41;97972.09;;;16.94;100.00
61039;BME280;46919;45.816;3.104;2022-08-19T05:27:06;97972.66;;;16.96;100.00
61039;BME280;46919;45.816;3.104;2022-08-19T05:29:32;97978.44;;;17.05;100.00
61039;BME280;46919;45.816;3.104;2022-08-19T05:32:00;97980.09;;;17.06;100.00
61039;BME280;46919;45.816;3.104;2022-08-19T05:34:26;97989.09;;;17.06;100.00
61039;BME280;46919;45.816;3.104;2022-08-19T05:36:56;97987.72;;;17.04;100.00
61039;BME280;46919;45.816;3.104;2022-08-19T05:39:26;97980.88;;;17.01;100.00
61039;BME280;46919;45.816;3.104;2022-08-19T05:41:55;97989.34;;;16.99;100.00
61039;BME280;46919;45.816;3.104;2022-08-19T05:44:24;97989.06;;;16.96;100.00
61039;BME280;46919;45.816;3.104;2022-08-19T05:46:50;97998.84;;;16.92;100.00
61039;BME280;46919;45.816;3.104;2022-08-19T05:49:19;97996.38;;;16.90;100.00
61039;BME280;46919;45.816;3.104;2022-08-19T05:51:45;97989.56;;;16.93;100.00
61039;BME280;46919;45.816;3.104;2022-08-19T05:54:11;97996.66;;;16.94;100.00
61039;BME280;46919;45.816;3.104;2022-08-19T05:56:40;97997.25;;;16.96;100.00
61039;BME280;46919;45.816;3.104;2022-08-19T05:59:07;98001.59;;;16.97;100.00
61039;BME280;46919;45.816;3.104;2022-08-19T06:01:38;98004.28;;;16.92;100.00
61039;BME280;46919;45.816;3.104;2022-08-19T06:04:04;98002.97;;;16.99;100.00
61039;BME280;46919;45.816;3.104;2022-08-19T06:06:29;98004.38;;;17.02;100.00
61039;BME280;46919;45.816;3.104;2022-08-19T06:08:55;98008.78;;;17.08;100.00
61039;BME280;46919;45.816;3.104;2022-08-19T06:11:33;98006.09;;;17.18;100.00
61039;BME280;46919;45.816;3.104;2022-08-19T06:14:11;98004.50;;;17.23;100.00
61039;BME280;46919;45.816;3.104;2022-08-19T06:16:38;98014.28;;;17.18;100.00
61039;BME280;46919;45.816;3.104;2022-08-19T06:19:07;98021.94;;;17.16;100.00
61039;BME280;46919;45.816;3.104;2022-08-19T06:21:33;98025.75;;;17.20;100.00
61039;BME280;46919;45.816;3.104;2022-08-19T06:23:59;98026.63;;;17.26;100.00
61039;BME280;46919;45.816;3.104;2022-08-19T06:26:25;98024.72;;;17.27;100.00
61039;BME280;46919;45.816;3.104;2022-08-19T06:28:52;98020.31;;;17.20;100.00
61039;BME280;46919;45.816;3.104;2022-08-19T06:31:20;98033.41;;;17.18;100.00
61039;BME280;46919;45.816;3.104;2022-08-19T06:33:47;98027.94;;;17.18;100.00
61039;BME280;46919;45.816;3.104;2022-08-19T06:36:26;98033.66;;;17.17;100.00
61039;BME280;46919;45.816;3.104;2022-08-19T06:38:55;98032.00;;;17.16;100.00
61039;BME280;46919;45.816;3.104;2022-08-19T06:41:22;98035.31;;;17.18;100.00
61039;BME280;46919;45.816;3.104;2022-08-19T06:43:47;98036.94;;;17.14;100.00
61039;BME280;46919;45.816;3.104;2022-08-19T06:46:15;98035.56;;;17.11;100.00
61039;BME280;46919;45.816;3.104;2022-08-19T06:48:41;98038.81;;;17.08;100.00
61039;BME280;46919;45.816;3.104;2022-08-19T06:51:06;98041.56;;;17.13;100.00
61039;BME280;46919;45.816;3.104;2022-08-19T06:53:32;98043.00;;;17.21;100.00
61039;BME280;46919;45.816;3.104;2022-08-19T06:55:58;98049.88;;;17.29;100.00
61039;BME280;46919;45.816;3.104;2022-08-19T06:58:31;98057.28;;;17.38;100.00
61039;BME280;46919;45.816;3.104;2022-08-19T07:01:01;98054.06;;;17.47;100.00
61039;BME280;46919;45.816;3.104;2022-08-19T07:03:30;98056.00;;;17.51;100.00
61039;BME280;46919;45.816;3.104;2022-08-19T07:05:57;98059.28;;;17.59;100.00
61039;BME280;46919;45.816;3.104;2022-08-19T07:08:24;98061.50;;;17.62;100.00
61039;BME280;46919;45.816;3.104;2022-08-19T07:10:52;98070.00;;;17.65;100.00
61039;BME280;46919;45.816;3.104;2022-08-19T07:13:18;98072.75;;;17.75;100.00
61039;BME280;46919;45.816;3.104;2022-08-19T07:15:44;98061.66;;;17.92;100.00
61039;BME280;46919;45.816;3.104;2022-08-19T07:18:11;98069.06;;;18.13;100.00
61039;BME280;46919;45.816;3.104;2022-08-19T07:20:37;98067.78;;;18.31;99.87
61039;BME280;46919;45.816;3.104;2022-08-19T07:23:04;98082.28;;;18.46;97.79
61039;BME280;46919;45.816;3.104;2022-08-19T07:25:29;98078.19;;;18.59;96.41
61039;BME280;46919;45.816;3.104;2022-08-19T07:27:55;98077.91;;;18.71;95.27
61039;BME280;46919;45.816;3.104;2022-08-19T07:30:20;98077.66;;;18.68;95.20
61039;BME280;46919;45.816;3.104;2022-08-19T07:32:47;98079.84;;;18.65;94.72
61039;BME280;46919;45.816;3.104;2022-08-19T07:35:13;98081.22;;;18.63;95.58
61039;BME280;46919;45.816;3.104;2022-08-19T07:37:38;98085.88;;;18.62;95.73
61039;BME280;46919;45.816;3.104;2022-08-19T07:40:09;98094.34;;;18.66;95.00
61039;BME280;46919;45.816;3.104;2022-08-19T07:42:36;98097.34;;;18.70;95.29
61039;BME280;46919;45.816;3.104;2022-08-19T07:45:02;98095.19;;;18.72;94.59
61039;BME280;46919;45.816;3.104;2022-08-19T07:47:28;98093.84;;;18.79;95.28
61039;BME280;46919;45.816;3.104;2022-08-19T07:49:53;98104.81;;;18.85;95.07
61039;BME280;46919;45.816;3.104;2022-08-19T07:52:19;98102.31;;;18.83;95.53
61039;BME280;46919;45.816;3.104;2022-08-19T07:54:45;98109.41;;;18.79;95.23
61039;BME280;46919;45.816;3.104;2022-08-19T07:57:10;98093.81;;;18.74;95.59
61039;BME280;46919;45.816;3.104;2022-08-19T07:59:36;98106.69;;;18.69;94.86
61039;BME280;46919;45.816;3.104;2022-08-19T08:02:02;98100.38;;;18.68;94.81
61039;BME280;46919;45.816;3.104;2022-08-19T08:04:29;98102.56;;;18.66;94.38
61039;BME280;46919;45.816;3.104;2022-08-19T08:07:14;98090.25;;;18.69;94.50
61039;BME280;46919;45.816;3.104;2022-08-19T08:09:58;98091.63;;;18.81;94.61
61039;BME280;46919;45.816;3.104;2022-08-19T08:12:28;98085.91;;;19.04;94.24
61039;BME280;46919;45.816;3.104;2022-08-19T08:14:58;98097.13;;;19.07;94.41
61039;BME280;46919;45.816;3.104;2022-08-19T08:17:26;98091.38;;;19.04;93.75
61039;BME280;46919;45.816;3.104;2022-08-19T08:19:52;98107.53;;;19.00;93.51
61039;BME280;46919;45.816;3.104;2022-08-19T08:22:20;98106.72;;;19.10;92.46
61039;BME280;46919;45.816;3.104;2022-08-19T08:25:08;98111.84;;;19.47;91.10
61039;BME280;46919;45.816;3.104;2022-08-19T08:27:41;98098.63;;;19.90;88.58
61039;BME280;46919;45.816;3.104;2022-08-19T08:30:14;98106.78;;;20.01;88.45
61039;BME280;46919;45.816;3.104;2022-08-19T08:32:41;98115.34;;;19.89;87.43
61039;BME280;46919;45.816;3.104;2022-08-19T08:35:09;98121.94;;;19.72;86.97
61039;BME280;46919;45.816;3.104;2022-08-19T08:37:36;98118.13;;;19.63;87.05
61039;BME280;46919;45.816;3.104;2022-08-19T08:40:29;98120.91;;;19.43;86.32
61039;BME280;46919;45.816;3.104;2022-08-19T08:46:15;98109.09;;;19.63;83.30
61039;BME280;46919;45.816;3.104;2022-08-19T08:50:02;98113.44;;;19.84;84.67
61039;BME280;46919;45.816;3.104;2022-08-19T08:52:11;98103.22;;;19.95;84.97
61039;BME280;46919;45.816;3.104;2022-08-19T08:54:43;98096.63;;;20.06;85.11
61039;BME280;46919;45.816;3.104;2022-08-19T08:57:23;98102.81;;;20.27;85.11
61039;BME280;46919;45.816;3.104;2022-08-19T08:59:54;98101.38;;;20.40;83.70
61039;BME280;46919;45.816;3.104;2022-08-19T09:02:22;98099.16;;;20.42;83.10
61039;BME280;46919;45.816;3.104;2022-08-19T09:04:47;98094.78;;;20.36;82.67
61039;BME280;46919;45.816;3.104;2022-08-19T09:10:11;98106.03;;;20.85;81.81
61039;BME280;46919;45.816;3.104;2022-08-19T09:13:07;98099.22;;;20.77;81.01
61039;BME280;46919;45.816;3.104;2022-08-19T09:15:40;98101.16;;;20.71;80.64
61039;BME280;46919;45.816;3.104;2022-08-19T09:18:09;98101.00;;;20.92;81.20
61039;BME280;46919;45.816;3.104;2022-08-19T09:20:34;98105.34;;;21.03;79.31
61039;BME280;46919;45.816;3.104;2022-08-19T09:23:00;98108.66;;;21.00;79.85
61039;BME280;46919;45.816;3.104;2022-08-19T09:25:26;98111.06;;;21.07;78.67
61039;BME280;46919;45.816;3.104;2022-08-19T09:27:52;98099.66;;;21.24;77.11
61039;BME280;46919;45.816;3.104;2022-08-19T09:30:21;98099.84;;;21.62;75.85
61039;BME280;46919;45.816;3.104;2022-08-19T09:32:47;98095.09;;;21.92;73.98
61039;BME280;46919;45.816;3.104;2022-08-19T09:35:13;98096.59;;;22.03;73.05
61039;BME280;46919;45.816;3.104;2022-08-19T09:37:39;98103.41;;;21.86;72.34
61039;BME280;46919;45.816;3.104;2022-08-19T09:40:05;98095.16;;;21.86;72.38
61039;BME280;46919;45.816;3.104;2022-08-19T09:42:31;98101.31;;;21.78;70.91
61039;BME280;46919;45.816;3.104;2022-08-19T09:44:57;98094.72;;;21.79;71.20
61039;BME280;46919;45.816;3.104;2022-08-19T09:47:22;98096.66;;;21.98;69.02
61039;BME280;46919;45.816;3.104;2022-08-19T09:49:48;98101.28;;;22.02;67.13
61039;BME280;46919;45.816;3.104;2022-08-19T09:52:13;98102.50;;;22.15;66.39
61039;BME280;46919;45.816;3.104;2022-08-19T09:54:40;98104.19;;;22.35;66.61
61039;BME280;46919;45.816;3.104;2022-08-19T09:57:06;98099.50;;;22.55;65.94
61039;BME280;46919;45.816;3.104;2022-08-19T09:59:31;98103.28;;;22.78;65.74
61039;BME280;46919;45.816;3.104;2022-08-19T10:01:57;98096.69;;;22.93;66.05
61039;BME280;46919;45.816;3.104;2022-08-19T10:04:23;98098.56;;;22.97;66.62
61039;BME280;46919;45.816;3.104;2022-08-19T10:07:09;98103.84;;;23.13;65.85
61039;BME280;46919;45.816;3.104;2022-08-19T10:09:34;98093.94;;;23.12;64.74
61039;BME280;46919;45.816;3.104;2022-08-19T10:12:00;98102.25;;;23.07;64.02
61039;BME280;46919;45.816;3.104;2022-08-19T10:14:26;98098.88;;;22.77;63.87
61039;BME280;46919;45.816;3.104;2022-08-19T10:16:52;98090.03;;;22.61;64.76
61039;BME280;46919;45.816;3.104;2022-08-19T10:19:18;98093.25;;;22.49;64.77
61039;BME280;46919;45.816;3.104;2022-08-19T10:21:45;98093.91;;;22.41;65.44
61039;BME280;46919;45.816;3.104;2022-08-19T10:24:10;98096.31;;;22.23;64.29
61039;BME280;46919;45.816;3.104;2022-08-19T10:26:38;98099.00;;;22.10;65.46
61039;BME280;46919;45.816;3.104;2022-08-19T10:29:07;98105.94;;;21.83;66.43
61039;BME280;46919;45.816;3.104;2022-08-19T10:31:33;98114.13;;;21.64;67.78
61039;BME280;46919;45.816;3.104;2022-08-19T10:34:00;98120.84;;;21.52;68.04
61039;BME280;46919;45.816;3.104;2022-08-19T10:36:32;98125.72;;;21.61;68.39
61039;BME280;46919;45.816;3.104;2022-08-19T10:38:59;98129.09;;;21.47;69.32
61039;BME280;46919;45.816;3.104;2022-08-19T10:41:37;98132.06;;;21.56;69.78
61039;BME280;46919;45.816;3.104;2022-08-19T10:44:08;98134.13;;;21.69;70.03
61039;BME280;46919;45.816;3.104;2022-08-19T10:46:37;98130.13;;;21.57;69.26
61039;BME280;46919;45.816;3.104;2022-08-19T10:49:04;98141.72;;;21.53;69.47
61039;BME280;46919;45.816;3.104;2022-08-19T10:51:30;98135.06;;;21.60;69.97
61039;BME280;46919;45.816;3.104;2022-08-19T10:54:15;98135.06;;;21.60;70.41
61039;BME280;46919;45.816;3.104;2022-08-19T10:56:40;98130.09;;;21.62;70.76
61039;BME280;46919;45.816;3.104;2022-08-19T10:59:20;98135.59;;;21.62;70.60
61039;BME280;46919;45.816;3.104;2022-08-19T11:01:47;98129.22;;;21.37;70.37
61039;BME280;46919;45.816;3.104;2022-08-19T11:04:13;98129.69;;;21.44;72.11
61039;BME280;46919;45.816;3.104;2022-08-19T11:06:41;98132.78;;;21.67;71.71
61039;BME280;46919;45.816;3.104;2022-08-19T11:09:09;98140.63;;;21.55;71.77
61039;BME280;46919;45.816;3.104;2022-08-19T11:11:36;98134.78;;;21.27;72.56
61039;BME280;46919;45.816;3.104;2022-08-19T11:14:06;98132.03;;;21.27;73.08
61039;BME280;46919;45.816;3.104;2022-08-19T11:16:32;98136.53;;;21.17;73.04
61039;BME280;46919;45.816;3.104;2022-08-19T11:18:59;98133.25;;;21.15;74.48
61039;BME280;46919;45.816;3.104;2022-08-19T11:21:28;98135.63;;;21.27;74.95
61039;BME280;46919;45.816;3.104;2022-08-19T11:23:57;98145.34;;;21.49;74.32
61039;BME280;46919;45.816;3.104;2022-08-19T11:26:23;98136.66;;;21.66;73.87
61039;BME280;46919;45.816;3.104;2022-08-19T11:28:49;98142.44;;;21.88;73.83
61039;BME280;46919;45.816;3.104;2022-08-19T11:31:22;98132.06;;;22.04;73.23
61039;BME280;46919;45.816;3.104;2022-08-19T11:33:48;98136.19;;;22.07;72.94
61039;BME280;46919;45.816;3.104;2022-08-19T11:36:18;98135.84;;;21.89;73.13
61039;BME280;46919;45.816;3.104;2022-08-19T11:38:48;98138.31;;;21.91;73.33
61039;BME280;46919;45.816;3.104;2022-08-19T11:41:15;98137.06;;;21.78;73.33
61039;BME280;46919;45.816;3.104;2022-08-19T11:43:41;98134.09;;;21.75;73.82
61039;BME280;46919;45.816;3.104;2022-08-19T11:46:09;98140.41;;;21.75;74.34
61039;BME280;46919;45.816;3.104;2022-08-19T11:48:35;98146.84;;;21.65;74.30
61039;BME280;46919;45.816;3.104;2022-08-19T11:51:05;98156.59;;;21.47;74.06
61039;BME280;46919;45.816;3.104;2022-08-19T11:53:31;98163.00;;;21.43;74.88
61039;BME280;46919;45.816;3.104;2022-08-19T11:55:57;98151.19;;;21.37;73.45
61039;BME280;46919;45.816;3.104;2022-08-19T11:58:23;98154.66;;;21.53;72.29
61039;BME280;46919;45.816;3.104;2022-08-19T12:00:51;98139.41;;;21.66;71.41
61039;BME280;46919;45.816;3.104;2022-08-19T12:03:16;98140.75;;;21.93;72.03
61039;BME280;46919;45.816;3.104;2022-08-19T12:05:42;98131.19;;;22.09;71.55
61039;BME280;46919;45.816;3.104;2022-08-19T12:08:08;98138.97;;;22.26;70.50
61039;BME280;46919;45.816;3.104;2022-08-19T12:10:34;98135.22;;;22.17;70.54
61039;BME280;46919;45.816;3.104;2022-08-19T12:13:00;98134.41;;;22.16;69.97
61039;BME280;46919;45.816;3.104;2022-08-19T12:15:26;98136.78;;;22.47;69.29
61039;BME280;46919;45.816;3.104;2022-08-19T12:17:53;98126.75;;;22.56;68.73
61039;BME280;46919;45.816;3.104;2022-08-19T12:20:22;98131.31;;;22.99;67.83
61039;BME280;46919;45.816;3.104;2022-08-19T12:22:49;98123.28;;;23.36;65.97
61039;BME280;46919;45.816;3.104;2022-08-19T12:25:15;98134.63;;;23.34;67.08
61039;BME280;46919;45.816;3.104;2022-08-19T12:27:41;98132.22;;;23.46;66.17
61039;BME280;46919;45.816;3.104;2022-08-19T12:30:09;98129.16;;;23.48;67.22
61039;BME280;46919;45.816;3.104;2022-08-19T12:32:36;98130.16;;;23.52;67.04
61039;BME280;46919;45.816;3.104;2022-08-19T12:35:01;98132.97;;;23.33;66.39
61039;BME280;46919;45.816;3.104;2022-08-19T12:37:27;98126.47;;;23.29;66.89
61039;BME280;46919;45.816;3.104;2022-08-19T12:39:52;98132.72;;;23.48;65.26
61039;BME280;46919;45.816;3.104;2022-08-19T12:42:17;98132.78;;;23.76;64.17
61039;BME280;46919;45.816;3.104;2022-08-19T12:44:44;98131.66;;;23.91;63.49
61039;BME280;46919;45.816;3.104;2022-08-19T12:47:11;98130.41;;;23.69;62.39
61039;BME280;46919;45.816;3.104;2022-08-19T12:49:37;98136.31;;;23.49;63.09
61039;BME280;46919;45.816;3.104;2022-08-19T12:52:06;98125.44;;;23.39;64.18
61039;BME280;46919;45.816;3.104;2022-08-19T12:54:32;98122.22;;;23.64;64.81
61039;BME280;46919;45.816;3.104;2022-08-19T12:56:58;98126.72;;;23.74;63.42
61039;BME280;46919;45.816;3.104;2022-08-19T12:59:24;98121.81;;;23.57;64.41
61039;BME280;46919;45.816;3.104;2022-08-19T13:01:50;98117.97;;;24.00;63.79
61039;BME280;46919;45.816;3.104;2022-08-19T13:04:16;98118.56;;;24.11;63.19
61039;BME280;46919;45.816;3.104;2022-08-19T13:06:42;98129.72;;;23.92;63.48
61039;BME280;46919;45.816;3.104;2022-08-19T13:09:08;98128.41;;;23.89;63.05
61039;BME280;46919;45.816;3.104;2022-08-19T13:11:34;98127.69;;;23.97;62.38
61039;BME280;46919;45.816;3.104;2022-08-19T13:14:01;98126.97;;;23.92;61.98